Capitol Logistics 7307

Operating for MZN



KSBD
San Bernardino International Airport
San Bernardino, California
PHOG
Kahului Airport
Kahului, Hawaii

Activity Log

Date Flight Route Aircraft Duration
No Flights Yet

Route Details

Aircraft Information
Primary: Boeing 767-300BDSF
Backup: Boeing 757-200SF
Route Data
Distance: 2201nm
Duration: 5h 19m
Recm'd Route: LHS RZS DINTY R576 DENNS LNDHY1
Origin Wx: KSBD 180151Z 22005KT 10SM FEW120 25/07 A2989
Dest. Wx: PHOG 180154Z 02014KT 10SM FEW030 SCT050 25/19 A3001 RMK AO2 SLP167 T02500194 $
Notes: